sensor_id;sensor_type;location;lat;lon;timestamp;pressure;altitude;pressure_sealevel;temperature;humidity
38253;BME280;24785;52.372;20.672;2023-08-12T00:07:37;101383.91;;;8.52;100.00
38253;BME280;24785;52.372;20.672;2023-08-12T00:17:38;101386.31;;;8.30;100.00
38253;BME280;24785;52.372;20.672;2023-08-12T00:27:42;101387.28;;;8.01;100.00
38253;BME280;24785;52.372;20.672;2023-08-12T00:37:43;101391.91;;;7.94;100.00
38253;BME280;24785;52.372;20.672;2023-08-12T00:47:44;101396.78;;;7.85;100.00
38253;BME280;24785;52.372;20.672;2023-08-12T00:57:45;101379.03;;;7.79;100.00
38253;BME280;24785;52.372;20.672;2023-08-12T01:07:46;101391.91;;;7.70;100.00
38253;BME280;24785;52.372;20.672;2023-08-12T01:17:47;101373.47;;;7.57;100.00
38253;BME280;24785;52.372;20.672;2023-08-12T01:27:52;101387.81;;;7.44;100.00
38253;BME280;24785;52.372;20.672;2023-08-12T01:37:53;101385.00;;;7.39;100.00
38253;BME280;24785;52.372;20.672;2023-08-12T01:47:56;101391.50;;;7.32;100.00
38253;BME280;24785;52.372;20.672;2023-08-12T01:57:57;101380.13;;;7.24;100.00
38253;BME280;24785;52.372;20.672;2023-08-12T02:07:58;101374.66;;;7.19;100.00
38253;BME280;24785;52.372;20.672;2023-08-12T02:17:59;101382.41;;;7.21;100.00
38253;BME280;24785;52.372;20.672;2023-08-12T02:28:00;101387.09;;;7.07;100.00
38253;BME280;24785;52.372;20.672;2023-08-12T02:38:00;101392.25;;;6.90;100.00
38253;BME280;24785;52.372;20.672;2023-08-12T02:48:01;101395.38;;;6.87;100.00
38253;BME280;24785;52.372;20.672;2023-08-12T02:58:02;101396.66;;;6.85;100.00
38253;BME280;24785;52.372;20.672;2023-08-12T03:08:04;101403.97;;;6.89;100.00
38253;BME280;24785;52.372;20.672;2023-08-12T03:18:05;101404.38;;;6.75;100.00
38253;BME280;24785;52.372;20.672;2023-08-12T03:28:06;101406.88;;;6.70;100.00
38253;BME280;24785;52.372;20.672;2023-08-12T03:38:07;101411.09;;;6.77;100.00
38253;BME280;24785;52.372;20.672;2023-08-12T03:48:08;101417.25;;;7.08;100.00
38253;BME280;24785;52.372;20.672;2023-08-12T03:58:09;101419.16;;;8.66;100.00
38253;BME280;24785;52.372;20.672;2023-08-12T04:08:10;101427.72;;;10.54;100.00
38253;BME280;24785;52.372;20.672;2023-08-12T04:18:11;101430.41;;;12.73;98.81
38253;BME280;24785;52.372;20.672;2023-08-12T04:28:13;101418.25;;;13.89;83.38
38253;BME280;24785;52.372;20.672;2023-08-12T04:38:14;101413.81;;;14.48;80.16
38253;BME280;24785;52.372;20.672;2023-08-12T04:48:16;101413.53;;;15.49;77.59
38253;BME280;24785;52.372;20.672;2023-08-12T04:58:16;101403.03;;;17.19;71.80
38253;BME280;24785;52.372;20.672;2023-08-12T05:08:18;101405.38;;;18.10;68.65
38253;BME280;24785;52.372;20.672;2023-08-12T05:18:21;101405.22;;;17.87;70.09
38253;BME280;24785;52.372;20.672;2023-08-12T05:28:24;101398.78;;;17.51;71.29
38253;BME280;24785;52.372;20.672;2023-08-12T05:38:24;101396.91;;;17.65;73.35
38253;BME280;24785;52.372;20.672;2023-08-12T05:48:25;101391.25;;;17.80;70.86
38253;BME280;24785;52.372;20.672;2023-08-12T05:58:26;101390.38;;;17.66;71.36
38253;BME280;24785;52.372;20.672;2023-08-12T06:08:27;101397.56;;;17.76;75.28
38253;BME280;24785;52.372;20.672;2023-08-12T06:18:28;101391.50;;;17.98;74.36
38253;BME280;24785;52.372;20.672;2023-08-12T06:28:29;101387.19;;;18.10;73.82
38253;BME280;24785;52.372;20.672;2023-08-12T06:38:30;101398.22;;;18.82;73.77
38253;BME280;24785;52.372;20.672;2023-08-12T06:48:31;101382.59;;;19.24;70.38
38253;BME280;24785;52.372;20.672;2023-08-12T06:58:32;101392.66;;;19.24;72.07
38253;BME280;24785;52.372;20.672;2023-08-12T07:08:33;101379.75;;;19.29;70.15
38253;BME280;24785;52.372;20.672;2023-08-12T07:18:34;101368.22;;;19.46;71.80
38253;BME280;24785;52.372;20.672;2023-08-12T07:28:35;101366.00;;;19.70;71.70
38253;BME280;24785;52.372;20.672;2023-08-12T07:38:36;101367.28;;;20.04;68.00
38253;BME280;24785;52.372;20.672;2023-08-12T07:48:37;101353.63;;;20.35;63.62
38253;BME280;24785;52.372;20.672;2023-08-12T07:58:38;101337.03;;;20.62;59.73
38253;BME280;24785;52.372;20.672;2023-08-12T08:08:39;101318.63;;;20.77;55.49
38253;BME280;24785;52.372;20.672;2023-08-12T08:18:40;101304.34;;;21.14;50.15
38253;BME280;24785;52.372;20.672;2023-08-12T08:28:41;101303.53;;;21.22;52.53
38253;BME280;24785;52.372;20.672;2023-08-12T08:38:42;101300.34;;;21.38;50.12
38253;BME280;24785;52.372;20.672;2023-08-12T08:48:43;101301.69;;;21.61;49.50
38253;BME280;24785;52.372;20.672;2023-08-12T08:58:44;101290.22;;;21.85;47.93
38253;BME280;24785;52.372;20.672;2023-08-12T09:08:47;101289.09;;;21.86;47.99
38253;BME280;24785;52.372;20.672;2023-08-12T09:18:55;101278.56;;;22.05;45.30
38253;BME280;24785;52.372;20.672;2023-08-12T09:28:59;101267.84;;;22.50;43.79
38253;BME280;24785;52.372;20.672;2023-08-12T09:39:06;101251.28;;;22.68;44.34
38253;BME280;24785;52.372;20.672;2023-08-12T09:49:12;101243.19;;;22.59;47.77
38253;BME280;24785;52.372;20.672;2023-08-12T09:59:16;101231.84;;;22.69;46.72
38253;BME280;24785;52.372;20.672;2023-08-12T10:09:20;101230.81;;;22.82;44.46
38253;BME280;24785;52.372;20.672;2023-08-12T10:19:22;101216.84;;;23.08;48.88
38253;BME280;24785;52.372;20.672;2023-08-12T10:29:23;101207.22;;;23.47;46.62
38253;BME280;24785;52.372;20.672;2023-08-12T10:39:28;101209.88;;;23.56;49.28
38253;BME280;24785;52.372;20.672;2023-08-12T10:49:38;101191.28;;;23.62;45.28
38253;BME280;24785;52.372;20.672;2023-08-12T11:09:51;101178.78;;;24.53;45.98
38253;BME280;24785;52.372;20.672;2023-08-12T11:19:55;101174.00;;;24.22;46.54
38253;BME280;24785;52.372;20.672;2023-08-12T11:29:56;101165.00;;;24.49;45.20
38253;BME280;24785;52.372;20.672;2023-08-12T11:39:56;101162.25;;;24.93;45.82
38253;BME280;24785;52.372;20.672;2023-08-12T11:49:58;101150.84;;;24.91;44.23
38253;BME280;24785;52.372;20.672;2023-08-12T12:00:03;101139.22;;;25.10;44.47
38253;BME280;24785;52.372;20.672;2023-08-12T12:10:06;101129.78;;;25.42;41.50
38253;BME280;24785;52.372;20.672;2023-08-12T12:20:08;101114.69;;;25.33;43.55
38253;BME280;24785;52.372;20.672;2023-08-12T12:30:13;101100.72;;;25.73;42.29
38253;BME280;24785;52.372;20.672;2023-08-12T12:40:14;101086.28;;;25.25;40.99
38253;BME280;24785;52.372;20.672;2023-08-12T12:50:15;101085.38;;;25.37;42.51
38253;BME280;24785;52.372;20.672;2023-08-12T13:00:17;101085.19;;;25.46;42.92
38253;BME280;24785;52.372;20.672;2023-08-12T13:10:18;101069.97;;;26.02;41.99
38253;BME280;24785;52.372;20.672;2023-08-12T13:20:20;101065.16;;;26.19;40.02
38253;BME280;24785;52.372;20.672;2023-08-12T13:30:21;101050.06;;;26.09;38.60
38253;BME280;24785;52.372;20.672;2023-08-12T13:40:22;101057.72;;;25.61;43.67
38253;BME280;24785;52.372;20.672;2023-08-12T13:50:23;101039.72;;;26.22;41.92
38253;BME280;24785;52.372;20.672;2023-08-12T14:00:24;101024.22;;;26.79;38.63
38253;BME280;24785;52.372;20.672;2023-08-12T14:10:25;101032.50;;;26.56;41.85
38253;BME280;24785;52.372;20.672;2023-08-12T14:20:26;101019.06;;;26.09;43.70
38253;BME280;24785;52.372;20.672;2023-08-12T14:30:27;101014.25;;;26.02;41.76
38253;BME280;24785;52.372;20.672;2023-08-12T14:40:27;101012.41;;;26.10;41.48
38253;BME280;24785;52.372;20.672;2023-08-12T14:50:28;101003.47;;;25.93;41.84
38253;BME280;24785;52.372;20.672;2023-08-12T15:00:29;101002.91;;;25.84;43.30
38253;BME280;24785;52.372;20.672;2023-08-12T15:10:31;100987.00;;;25.55;41.48
38253;BME280;24785;52.372;20.672;2023-08-12T15:20:31;100982.34;;;25.97;41.57
38253;BME280;24785;52.372;20.672;2023-08-12T15:30:32;100972.59;;;28.22;37.38
38253;BME280;24785;52.372;20.672;2023-08-12T15:40:36;100964.34;;;27.48;38.93
38253;BME280;24785;52.372;20.672;2023-08-12T15:50:38;100956.28;;;28.95;34.65
38253;BME280;24785;52.372;20.672;2023-08-12T16:00:39;100949.41;;;32.64;30.59
38253;BME280;24785;52.372;20.672;2023-08-12T16:10:43;100926.03;;;31.54;31.29
38253;BME280;24785;52.372;20.672;2023-08-12T16:20:44;100939.34;;;28.96;34.05
38253;BME280;24785;52.372;20.672;2023-08-12T16:30:45;100946.56;;;26.13;41.70
38253;BME280;24785;52.372;20.672;2023-08-12T16:40:47;100947.00;;;24.33;48.19
38253;BME280;24785;52.372;20.672;2023-08-12T16:50:48;100950.47;;;22.93;53.74
38253;BME280;24785;52.372;20.672;2023-08-12T17:00:49;100964.97;;;21.79;56.67
38253;BME280;24785;52.372;20.672;2023-08-12T17:10:50;100981.31;;;21.17;60.80
38253;BME280;24785;52.372;20.672;2023-08-12T17:20:51;100973.94;;;20.58;64.86
38253;BME280;24785;52.372;20.672;2023-08-12T17:30:52;100979.00;;;20.13;70.73
38253;BME280;24785;52.372;20.672;2023-08-12T17:40:53;100972.34;;;19.76;72.64
38253;BME280;24785;52.372;20.672;2023-08-12T17:50:54;100971.84;;;19.22;73.73
38253;BME280;24785;52.372;20.672;2023-08-12T18:00:55;100967.25;;;18.74;82.53
38253;BME280;24785;52.372;20.672;2023-08-12T18:10:56;100961.75;;;18.26;85.26
38253;BME280;24785;52.372;20.672;2023-08-12T18:20:57;100969.00;;;17.86;91.53
38253;BME280;24785;52.372;20.672;2023-08-12T18:30:58;100969.31;;;17.48;97.95
38253;BME280;24785;52.372;20.672;2023-08-12T18:40:59;100983.97;;;17.11;100.00
38253;BME280;24785;52.372;20.672;2023-08-12T18:51:00;100976.28;;;16.77;100.00
38253;BME280;24785;52.372;20.672;2023-08-12T19:01:00;100977.75;;;16.56;100.00
38253;BME280;24785;52.372;20.672;2023-08-12T19:11:01;100983.00;;;16.33;100.00
38253;BME280;24785;52.372;20.672;2023-08-12T19:21:02;100984.00;;;16.24;100.00
38253;BME280;24785;52.372;20.672;2023-08-12T19:31:03;100990.72;;;15.94;100.00
38253;BME280;24785;52.372;20.672;2023-08-12T19:41:04;100984.63;;;15.69;100.00
38253;BME280;24785;52.372;20.672;2023-08-12T19:51:05;100990.34;;;15.44;100.00
38253;BME280;24785;52.372;20.672;2023-08-12T20:01:06;100985.81;;;15.21;100.00
38253;BME280;24785;52.372;20.672;2023-08-12T20:11:07;100979.66;;;14.96;100.00
38253;BME280;24785;52.372;20.672;2023-08-12T20:21:08;100976.03;;;14.58;100.00
38253;BME280;24785;52.372;20.672;2023-08-12T20:31:09;100979.44;;;14.40;100.00
38253;BME280;24785;52.372;20.672;2023-08-12T20:41:10;100963.72;;;14.23;100.00
38253;BME280;24785;52.372;20.672;2023-08-12T20:51:11;100965.19;;;14.05;100.00
38253;BME280;24785;52.372;20.672;2023-08-12T21:01:12;100961.00;;;13.94;100.00
38253;BME280;24785;52.372;20.672;2023-08-12T21:11:13;100952.81;;;13.75;100.00
38253;BME280;24785;52.372;20.672;2023-08-12T21:21:14;100955.63;;;13.55;100.00
38253;BME280;24785;52.372;20.672;2023-08-12T21:31:14;100946.53;;;13.46;100.00
38253;BME280;24785;52.372;20.672;2023-08-12T21:41:15;100938.00;;;13.34;100.00
38253;BME280;24785;52.372;20.672;2023-08-12T21:51:16;100940.22;;;13.21;100.00
38253;BME280;24785;52.372;20.672;2023-08-12T22:01:22;100942.94;;;13.11;100.00
38253;BME280;24785;52.372;20.672;2023-08-12T22:11:23;100941.66;;;12.99;100.00
38253;BME280;24785;52.372;20.672;2023-08-12T22:21:27;100924.44;;;13.00;100.00
38253;BME280;24785;52.372;20.672;2023-08-12T22:31:27;100902.44;;;12.92;100.00
38253;BME280;24785;52.372;20.672;2023-08-12T22:41:28;100888.75;;;12.84;100.00
38253;BME280;24785;52.372;20.672;2023-08-12T22:51:29;100892.88;;;12.61;100.00
38253;BME280;24785;52.372;20.672;2023-08-12T23:01:30;100883.78;;;12.52;100.00
38253;BME280;24785;52.372;20.672;2023-08-12T23:11:31;100864.09;;;12.61;100.00
38253;BME280;24785;52.372;20.672;2023-08-12T23:21:32;100861.63;;;12.80;100.00
38253;BME280;24785;52.372;20.672;2023-08-12T23:31:33;100871.25;;;12.86;100.00
38253;BME280;24785;52.372;20.672;2023-08-12T23:41:34;100863.41;;;12.95;100.00
38253;BME280;24785;52.372;20.672;2023-08-12T23:51:38;100863.38;;;13.00;100.00
